Grand Forks, ND (58206)

9:37 PM CDT on July 25, 2016 (GMT -0500)
APRSWXNET | | Change Station

Elev 846 ft 47.89 °N, 97.16 °W | Updated 14 minutes ago

Scattered Clouds
Scattered Clouds
80 °F
Feels Like 84 °F
N
0
Wind Variable Wind from ESE
Gusts 0.0 mph

Today
High -- | Low -- °F
--% Chance of Precip.
Yesterday
High -- | Low -- °F
Precip. -- in
Pressure 29.87 in
Visibility 10.0 miles
Clouds Scattered Clouds 6500 ft
Scattered Clouds 15000 ft
Heat Index 84 °F
Dew Point 72 °F
Humidity 78%
Rainfall in
Snow Depth Not available.
5:56 AM 9:12 PM
Waning Gibbous, 60% visible
METAR KGFK 260153Z 10004KT 10SM SCT065 SCT150 29/21 A2988 RMK AO2 SLP115 T02890206
Pressure 29.87 in
Visibility 10.0 miles
Clouds Scattered Clouds 6500 ft
Scattered Clouds 15000 ft
Heat Index 84 °F
Dew Point 72 °F
Humidity 78%
Rainfall in
Snow Depth Not available.
5:56 AM 9:12 PM
Waning Gibbous, 60% visible
METAR KGFK 260153Z 10004KT 10SM SCT065 SCT150 29/21 A2988 RMK AO2 SLP115 T02890206

10-Day Weather Forecast

Almanac

Astronomy

Jul. 25, 2016 Rise Set
Actual Time
Civil Twilight
Nautical Twilight
Astronomical Twilight
Moon
Length of Visible Light
Length of Day
Tomorrow will be .
, % of the Moon is Illuminated

Today's Extremes

State Highs State Lows

Community

WunderPhotos

Upload Photos

1,927,505 photos uploaded!

WunderBlog® & News

Nearby

Air Quality

  Air Quality AQ Index Pollutant
Not available.

Snow Depth

Station Depth Elevation

Earthquake Activity

City Distance Mag. Time & Date
Minimum magnitude displayed is 2.5.

Coastal Water Temperatures

Place Temperature

Stations

Nearby Weather Stations

Station Location Temp. Windchill Dew Point Humidity Wind Precip. Elev Updated Type
                   

Watches & Warnings

There are currently no watches in effect.